Hampton, NH (03842)

12:34 PM EDT on March 26, 2017 (GMT -0400)
Towle Farm | | Change Station
Active Advisory: Freezing Rain Advisory

Elev 56 ft 42.94 °N, 70.85 °W | Updated 14 minutes ago

Mostly Cloudy
Mostly Cloudy
37.2 °F
Feels Like 37 °F
N
3.0
Wind Variable Wind from NE
Gusts 12.0 mph

Today
High -- | Low -- °F
--% Chance of Precip.
Yesterday
High -- | Low -- °F
Precip. -- in
Pressure 30.58 in
Visibility 10.0 miles
Clouds Few 15000 ft
Mostly Cloudy 25000 ft
Windchill 37 °F
Dew Point 26 °F
Humidity 63%
Rainfall 0.00 in
Snow Depth Not available.
6:35 AM 7:02 PM
Waning Crescent, 3% visible
METAR KPSM 261558Z 06009KT 10SM FEW150 BKN250 02/M08 A3057 RMK AO2A SLP355 T00181076
Pressure 30.58 in
Visibility 10.0 miles
Clouds Few 15000 ft
Mostly Cloudy 25000 ft
Windchill 37 °F
Dew Point 26 °F
Humidity 63%
Rainfall 0.00 in
Snow Depth Not available.
6:35 AM 7:02 PM
Waning Crescent, 3% visible
METAR KPSM 261558Z 06009KT 10SM FEW150 BKN250 02/M08 A3057 RMK AO2A SLP355 T00181076

Get Your Daily Forecast Email!

Thanks for signing up!

Be on the lookout for a verification email in your inbox.

You'll start receiving severe weather alerts in your inbox..

×

10-Day Weather Forecast

Almanac

Astronomy

Mar. 26, 2017 Rise Set
Actual Time
Civil Twilight
Nautical Twilight
Astronomical Twilight
Moon
Length of Visible Light
Length of Day
Tomorrow will be .
, % of the Moon is Illuminated

Today's Extremes

State Highs State Lows

Community

WunderPhotos

Upload Photos

1,962,540 photos uploaded!

WunderBlog® & News

Nearby

Air Quality

  Air Quality AQ Index Pollutant
Not available.

Snow Depth

Station Depth Elevation

Earthquake Activity

City Distance Mag. Time & Date
Minimum magnitude displayed is 2.5.

Earthquake Activity

City Distance Mag. Time & Date
Minimum magnitude displayed is 2.5.

Coastal Water Temperatures

Place Temperature

Stations

Nearby Weather Stations

Station Location Temp. Windchill Dew Point Humidity Wind Precip. Elev Updated Type
                   

Watches & Warnings

Freezing Rain Advisory
Issued: 11:10 AM EDT Mar. 26, 2017 – National Weather Service

... Freezing Rain Advisory remains in effect from 8 PM this
evening to 10 am EDT Monday...

* hazard types... freezing rain.

* Ice accumulations... around two tenths of an inch.

* Timing... freezing rain may begin as early as this evening,
increasing in intensity by Monday morning. Temperatures will
warm and freezing rain will change to rain Monday morning.

* Impacts... freezing rain will cause roadways to become very
slick, leading to dangerous travel conditions. Ice
accumulation on trees will weigh down limbs and could snap
small branches.

* Winds... southeast 5 to 10 mph.

* Temperatures... in the lower 30s.

Precautionary/preparedness actions...

A Freezing Rain Advisory means that periods of freezing rain or
freezing drizzle will cause travel difficulties. Be prepared for
slippery roads. Slow down and use caution while driving.